createdAt,value
2023-01-15T04:17:17.841Z,100.00
2023-01-15T04:19:57.329Z,100.00
2023-01-15T04:22:24.991Z,100.00
2023-01-15T04:25:02.588Z,100.00
2023-01-15T04:27:35.064Z,100.00
2023-01-15T04:30:03.141Z,100.00
2023-01-15T04:32:33.467Z,100.00
2023-01-15T04:35:06.452Z,100.00
2023-01-15T04:37:39.136Z,100.00
2023-01-15T04:40:10.370Z,100.00
2023-01-15T04:42:56.978Z,100.00
2023-01-15T04:45:34.265Z,100.00
2023-01-15T04:48:07.005Z,100.00
2023-01-15T04:50:34.614Z,100.00
2023-01-15T04:53:21.628Z,100.00
2023-01-15T04:55:51.846Z,100.00
2023-01-15T04:58:25.785Z,100.00
2023-01-15T05:00:53.321Z,100.00
2023-01-15T05:03:25.383Z,100.00
2023-01-15T05:05:57.949Z,100.00
2023-01-15T05:08:36.271Z,100.00
2023-01-15T05:11:09.876Z,100.00
2023-01-15T05:13:50.440Z,100.00
2023-01-15T05:16:27.315Z,100.00
2023-01-15T05:19:04.194Z,100.00
2023-01-15T05:21:38.723Z,100.00
2023-01-15T05:24:11.230Z,100.00
2023-01-15T05:26:51.657Z,100.00
2023-01-15T05:29:38.978Z,100.00
2023-01-15T05:32:09.861Z,100.00
2023-01-15T05:34:37.275Z,100.00
2023-01-15T05:37:04.937Z,100.00
2023-01-15T05:39:32.290Z,100.00
2023-01-15T05:42:11.220Z,100.00
2023-01-15T05:44:38.682Z,100.00
2023-01-15T05:47:14.599Z,100.00
2023-01-15T05:49:41.683Z,100.00
2023-01-15T05:52:14.509Z,100.00
2023-01-15T05:54:51.452Z,100.00
2023-01-15T05:57:18.931Z,100.00
2023-01-15T12:05:54.562Z,100.00
2023-01-15T12:08:40.350Z,100.00
2023-01-15T12:11:27.204Z,100.00
2023-01-15T12:14:03.633Z,99.89
2023-01-15T12:16:49.009Z,99.98
2023-01-15T12:19:31.114Z,99.71
2023-01-15T12:22:04.116Z,99.80
2023-01-15T12:24:53.060Z,99.58
2023-01-15T12:27:23.160Z,99.25
2023-01-15T12:30:02.736Z,99.61
2023-01-15T12:32:43.695Z,99.18
2023-01-15T12:35:32.461Z,98.78
2023-01-15T12:38:11.785Z,98.42
2023-01-15T12:40:45.188Z,98.45
2023-01-15T12:43:43.785Z,98.66
2023-01-15T12:46:16.819Z,97.93
2023-01-15T12:48:59.693Z,97.78
2023-01-15T12:51:36.660Z,97.62
2023-01-15T12:54:11.504Z,97.50
2023-01-15T12:56:47.661Z,97.09
2023-01-15T12:59:24.875Z,97.14
2023-01-15T13:02:10.753Z,96.50
2023-01-15T13:05:16.588Z,95.97
2023-01-15T13:07:49.003Z,95.97
2023-01-15T13:10:20.015Z,95.61
2023-01-15T13:12:47.045Z,94.76
2023-01-15T13:15:15.122Z,94.80
2023-01-15T13:18:01.119Z,94.97
2023-01-15T13:20:32.069Z,94.97
2023-01-15T13:23:05.452Z,94.69
2023-01-15T13:25:51.451Z,94.90
2023-01-15T13:29:13.278Z,95.04
2023-01-15T13:31:52.347Z,94.81
2023-01-15T13:34:58.058Z,95.07
2023-01-15T13:37:33.956Z,95.12
2023-01-15T13:40:04.298Z,95.19
2023-01-15T13:42:34.773Z,95.22
2023-01-15T13:45:34.406Z,95.21
2023-01-15T13:48:07.456Z,95.28
2023-01-15T13:50:41.428Z,95.52
2023-01-15T13:53:34.233Z,95.83
2023-01-15T13:56:12.818Z,95.83
2023-01-15T13:58:51.891Z,96.03
2023-01-15T19:03:56.384Z,100.00
2023-01-15T19:06:23.382Z,100.00
2023-01-15T19:08:53.737Z,100.00
2023-01-15T19:11:23.036Z,100.00
2023-01-15T19:14:10.258Z,100.00
2023-01-15T19:16:58.502Z,100.00
2023-01-15T19:19:26.063Z,100.00
2023-01-15T19:22:11.853Z,100.00
2023-01-15T19:24:42.416Z,100.00
2023-01-15T19:27:11.988Z,100.00
2023-01-15T19:29:42.207Z,100.00
2023-01-15T19:32:09.567Z,100.00
2023-01-15T19:34:36.815Z,100.00
2023-01-15T19:37:04.479Z,100.00
2023-01-15T19:39:32.041Z,100.00
2023-01-15T19:42:17.833Z,100.00
2023-01-15T19:45:06.275Z,100.00
2023-01-15T19:47:56.980Z,100.00
2023-01-15T19:50:33.961Z,100.00
2023-01-15T19:53:02.542Z,100.00
2023-01-15T19:55:33.285Z,100.00
2023-01-15T19:58:02.202Z,100.00
2023-01-15T20:00:34.360Z,100.00
2023-01-15T20:03:10.089Z,100.00
2023-01-15T20:05:37.655Z,100.00
2023-01-15T20:08:05.213Z,100.00
2023-01-15T20:10:38.603Z,100.00
2023-01-15T20:13:24.597Z,100.00
2023-01-15T20:15:51.847Z,100.00
2023-01-15T20:18:23.612Z,100.00
2023-01-15T20:20:51.171Z,100.00
2023-01-15T20:23:18.333Z,100.00
2023-01-15T20:25:50.284Z,100.00
2023-01-15T20:28:19.688Z,100.00
2023-01-15T20:30:47.262Z,100.00
2023-01-15T20:33:24.430Z,100.00
2023-01-15T20:35:54.453Z,100.00
2023-01-15T20:38:27.029Z,100.00
2023-01-15T20:40:54.689Z,100.00
2023-01-15T20:43:40.477Z,100.00
2023-01-15T20:46:12.686Z,100.00
2023-01-15T20:48:58.534Z,100.00
2023-01-15T20:51:25.889Z,100.00
2023-01-15T20:53:53.552Z,100.00
2023-01-15T20:56:21.128Z,100.00
2023-01-15T20:58:48.671Z,100.00
2023-01-15T21:01:18.407Z,100.00
2023-01-15T21:03:49.528Z,100.00
2023-01-15T21:06:19.960Z,100.00
2023-01-15T21:08:47.614Z,100.00
2023-01-15T21:11:15.278Z,100.00
2023-01-15T21:13:48.984Z,100.00
2023-01-15T21:16:16.476Z,100.00
2023-01-15T21:18:48.099Z,100.00
2023-01-15T21:21:19.642Z,100.00
2023-01-15T21:23:52.225Z,100.00
2023-01-15T21:26:29.207Z,100.00
2023-01-15T21:28:56.669Z,100.00
2023-01-15T21:31:26.521Z,100.00
2023-01-15T21:33:57.321Z,100.00
2023-01-15T21:36:33.784Z,100.00
2023-01-15T21:39:01.367Z,100.00
2023-01-15T21:41:50.206Z,100.00
2023-01-15T21:44:57.085Z,100.00
2023-01-15T21:47:30.339Z,100.00
2023-01-15T21:50:00.972Z,100.00
2023-01-15T21:52:45.263Z,100.00
